Flugplatz Illertissen (EDMI)

Hier findest Du alle Informationen zum Flugplatz Illertissen (EDMI).

Informationen für Piloten zum Flugplatz Illertissen

Hier findest Du alle relevanten Informationen, die Du als Pilot benötigst, um Illertissen anzufliegen.

Flugplatz: Illertissen ICAO-Code: EDMI
Frequenz Turm: 118,525 Mhz GAFOR Gebiet: -
Frequenz Ground: 118,525 Mhz Mogas: ja
Platzrunde: S 2400 ft Landegebühr: -
Platzhöhe: - Sunrise: 03:26 Uhr UTC
Pisten: 08/26 - 540 m x 30 m, GRAS Sunset: 19:06 Uhr UTC

Mitglieder, die in Illertissen fliegen

Flugwetter am Flugplatz Illertissen

Die METAR Information stammen aus EDMA (62.36 km entfernt).

METAR Code:
2022/05/24 19:20
EDMA 241920Z AUTO 22003KT 9999 FEW068/// OVC079/// 14/11 Q1013

Flugschulen am Flugplatz Illertissen

Am Flugplatz Illertissen gibt es leider keine Flugschule.

Benachbarte Flugplätze und Flugschulen

Es gibt 22 weitere Flugplätze in einem Umkreis von 50 km um den Flugplatz Illertissen.

Jetzt anmelden

Passwort vergessen

Umfrage Archiv

Sendet Ihr ADS-B und/oder FLARM?

Ja
81.6 %
Nein
18.4 %
Stimmen: 147 | Diskussion
Anzeige: Roland Aircraft
Statistik Alle Mitglieder

Aktuell sind 73 Besucher online, davon 1 Mitglied und 72 Gäste.


Mitglieder online:
BravoEcho 

Anzeige: ULPower Aero Engines Anzeige: Pocket FMS